sensor_id;sensor_type;location;lat;lon;timestamp;temperature;humidity
24678;DHT22;12800;53.094;8.778;2023-07-22T02:01:40;15.40;82.00
24678;DHT22;12800;53.094;8.778;2023-07-22T02:04:06;15.40;82.00
24678;DHT22;12800;53.094;8.778;2023-07-22T02:06:32;15.40;82.00
24678;DHT22;12800;53.094;8.778;2023-07-22T02:08:58;15.40;82.00
24678;DHT22;12800;53.094;8.778;2023-07-22T02:11:24;15.40;81.90
24678;DHT22;12800;53.094;8.778;2023-07-22T02:13:49;15.40;81.90
24678;DHT22;12800;53.094;8.778;2023-07-22T02:16:15;15.40;81.80
24678;DHT22;12800;53.094;8.778;2023-07-22T02:18:42;15.40;81.90
24678;DHT22;12800;53.094;8.778;2023-07-22T02:21:07;15.40;81.90
24678;DHT22;12800;53.094;8.778;2023-07-22T02:23:33;15.30;81.90
24678;DHT22;12800;53.094;8.778;2023-07-22T02:25:59;15.30;82.00
24678;DHT22;12800;53.094;8.778;2023-07-22T02:28:24;15.30;81.90
24678;DHT22;12800;53.094;8.778;2023-07-22T02:30:52;15.30;81.90
24678;DHT22;12800;53.094;8.778;2023-07-22T02:33:18;15.30;82.00
24678;DHT22;12800;53.094;8.778;2023-07-22T02:35:44;15.30;81.90
24678;DHT22;12800;53.094;8.778;2023-07-22T02:38:10;15.30;81.90
24678;DHT22;12800;53.094;8.778;2023-07-22T02:40:39;15.30;82.00
24678;DHT22;12800;53.094;8.778;2023-07-22T02:43:05;15.30;82.00
24678;DHT22;12800;53.094;8.778;2023-07-22T02:45:32;15.30;82.10
24678;DHT22;12800;53.094;8.778;2023-07-22T02:47:58;15.30;82.00
24678;DHT22;12800;53.094;8.778;2023-07-22T02:50:24;15.30;81.90
24678;DHT22;12800;53.094;8.778;2023-07-22T02:52:51;15.20;82.00
24678;DHT22;12800;53.094;8.778;2023-07-22T02:55:17;15.20;82.00
24678;DHT22;12800;53.094;8.778;2023-07-22T02:57:47;15.20;82.10
24678;DHT22;12800;53.094;8.778;2023-07-22T03:00:17;15.20;82.10
24678;DHT22;12800;53.094;8.778;2023-07-22T03:02:55;15.20;82.20
24678;DHT22;12800;53.094;8.778;2023-07-22T03:05:28;15.20;82.20
24678;DHT22;12800;53.094;8.778;2023-07-22T03:07:53;15.10;82.00
24678;DHT22;12800;53.094;8.778;2023-07-22T03:10:19;15.10;82.10
24678;DHT22;12800;53.094;8.778;2023-07-22T03:12:45;15.10;82.10
24678;DHT22;12800;53.094;8.778;2023-07-22T03:15:11;15.10;82.30
24678;DHT22;12800;53.094;8.778;2023-07-22T03:17:38;15.10;82.30
24678;DHT22;12800;53.094;8.778;2023-07-22T03:20:05;15.10;82.30
24678;DHT22;12800;53.094;8.778;2023-07-22T03:22:40;15.00;82.20
24678;DHT22;12800;53.094;8.778;2023-07-22T03:25:08;15.00;82.20
24678;DHT22;12800;53.094;8.778;2023-07-22T03:27:35;15.00;82.20
24678;DHT22;12800;53.094;8.778;2023-07-22T03:30:06;15.00;82.20
24678;DHT22;12800;53.094;8.778;2023-07-22T03:32:33;15.00;82.30
24678;DHT22;12800;53.094;8.778;2023-07-22T03:34:59;15.00;82.30
24678;DHT22;12800;53.094;8.778;2023-07-22T03:37:25;15.00;82.30
24678;DHT22;12800;53.094;8.778;2023-07-22T03:42:21;15.00;82.40
24678;DHT22;12800;53.094;8.778;2023-07-22T03:44:47;15.00;82.40
24678;DHT22;12800;53.094;8.778;2023-07-22T03:47:12;15.00;82.40
24678;DHT22;12800;53.094;8.778;2023-07-22T03:52:13;15.00;82.40
24678;DHT22;12800;53.094;8.778;2023-07-22T03:54:40;15.00;82.40
24678;DHT22;12800;53.094;8.778;2023-07-22T04:02:05;14.90;82.30
24678;DHT22;12800;53.094;8.778;2023-07-22T04:04:31;14.90;82.20
24678;DHT22;12800;53.094;8.778;2023-07-22T04:06:58;14.90;82.40
24678;DHT22;12800;53.094;8.778;2023-07-22T04:09:23;14.90;82.30
24678;DHT22;12800;53.094;8.778;2023-07-22T04:11:49;15.00;82.40
24678;DHT22;12800;53.094;8.778;2023-07-22T04:14:14;14.90;82.20
24678;DHT22;12800;53.094;8.778;2023-07-22T04:16:41;14.90;82.20
24678;DHT22;12800;53.094;8.778;2023-07-22T04:19:06;15.00;82.20
24678;DHT22;12800;53.094;8.778;2023-07-22T04:21:32;15.00;82.30
24678;DHT22;12800;53.094;8.778;2023-07-22T04:23:57;15.00;82.40
24678;DHT22;12800;53.094;8.778;2023-07-22T04:26:23;15.00;82.20
24678;DHT22;12800;53.094;8.778;2023-07-22T04:28:49;15.00;82.20
24678;DHT22;12800;53.094;8.778;2023-07-22T04:31:14;15.00;82.30
24678;DHT22;12800;53.094;8.778;2023-07-22T04:33:40;15.00;82.40
24678;DHT22;12800;53.094;8.778;2023-07-22T04:36:07;15.00;82.40
24678;DHT22;12800;53.094;8.778;2023-07-22T04:38:32;15.00;82.40
24678;DHT22;12800;53.094;8.778;2023-07-22T04:40:58;15.00;82.40
24678;DHT22;12800;53.094;8.778;2023-07-22T04:43:25;15.00;82.40
24678;DHT22;12800;53.094;8.778;2023-07-22T04:45:52;15.10;82.50
24678;DHT22;12800;53.094;8.778;2023-07-22T04:48:19;15.10;82.30
24678;DHT22;12800;53.094;8.778;2023-07-22T04:50:45;15.10;82.30
24678;DHT22;12800;53.094;8.778;2023-07-22T04:53:12;15.10;82.30
24678;DHT22;12800;53.094;8.778;2023-07-22T04:55:41;15.10;82.30
24678;DHT22;12800;53.094;8.778;2023-07-22T04:58:06;15.10;82.30
24678;DHT22;12800;53.094;8.778;2023-07-22T05:00:32;15.10;82.40
24678;DHT22;12800;53.094;8.778;2023-07-22T05:02:59;15.20;82.40
24678;DHT22;12800;53.094;8.778;2023-07-22T05:05:24;15.20;82.40
24678;DHT22;12800;53.094;8.778;2023-07-22T05:07:50;15.20;82.50
24678;DHT22;12800;53.094;8.778;2023-07-22T05:10:16;15.30;82.40
24678;DHT22;12800;53.094;8.778;2023-07-22T05:12:42;15.30;82.40
24678;DHT22;12800;53.094;8.778;2023-07-22T05:15:09;15.40;82.30
24678;DHT22;12800;53.094;8.778;2023-07-22T05:17:35;15.40;82.20
24678;DHT22;12800;53.094;8.778;2023-07-22T05:20:00;15.50;82.30
24678;DHT22;12800;53.094;8.778;2023-07-22T05:22:26;15.50;82.10
24678;DHT22;12800;53.094;8.778;2023-07-22T05:24:52;15.60;82.00
24678;DHT22;12800;53.094;8.778;2023-07-22T05:27:18;15.60;81.70
24678;DHT22;12800;53.094;8.778;2023-07-22T05:29:44;15.60;81.50
24678;DHT22;12800;53.094;8.778;2023-07-22T05:32:10;15.60;81.30
24678;DHT22;12800;53.094;8.778;2023-07-22T05:34:36;15.60;81.30
24678;DHT22;12800;53.094;8.778;2023-07-22T05:37:03;15.70;81.30
24678;DHT22;12800;53.094;8.778;2023-07-22T05:39:29;15.70;81.40
24678;DHT22;12800;53.094;8.778;2023-07-22T05:41:54;15.80;81.50
24678;DHT22;12800;53.094;8.778;2023-07-22T05:44:21;15.90;81.50
24678;DHT22;12800;53.094;8.778;2023-07-22T05:46:47;15.90;81.40
24678;DHT22;12800;53.094;8.778;2023-07-22T05:49:13;16.00;81.30
24678;DHT22;12800;53.094;8.778;2023-07-22T05:51:38;16.10;81.30
24678;DHT22;12800;53.094;8.778;2023-07-22T05:54:04;16.00;80.90
24678;DHT22;12800;53.094;8.778;2023-07-22T05:56:30;16.10;80.90
24678;DHT22;12800;53.094;8.778;2023-07-22T05:58:56;16.20;80.80
24678;DHT22;12800;53.094;8.778;2023-07-22T06:01:23;16.20;80.60
24678;DHT22;12800;53.094;8.778;2023-07-22T06:03:50;16.30;80.70
24678;DHT22;12800;53.094;8.778;2023-07-22T06:06:15;16.30;80.40
24678;DHT22;12800;53.094;8.778;2023-07-22T06:08:41;16.30;80.20
24678;DHT22;12800;53.094;8.778;2023-07-22T06:11:07;16.40;80.30
24678;DHT22;12800;53.094;8.778;2023-07-22T06:13:32;16.40;80.20
24678;DHT22;12800;53.094;8.778;2023-07-22T06:15:58;16.50;80.00
24678;DHT22;12800;53.094;8.778;2023-07-22T06:18:23;16.60;80.00
24678;DHT22;12800;53.094;8.778;2023-07-22T06:20:49;16.60;80.00
24678;DHT22;12800;53.094;8.778;2023-07-22T06:23:15;16.70;79.70
24678;DHT22;12800;53.094;8.778;2023-07-22T06:25:41;16.70;79.60
24678;DHT22;12800;53.094;8.778;2023-07-22T06:28:07;16.80;79.30
24678;DHT22;12800;53.094;8.778;2023-07-22T06:30:32;16.90;79.40
24678;DHT22;12800;53.094;8.778;2023-07-22T06:32:58;16.90;79.20
24678;DHT22;12800;53.094;8.778;2023-07-22T06:35:23;16.90;79.00
24678;DHT22;12800;53.094;8.778;2023-07-22T06:37:49;16.90;78.70
24678;DHT22;12800;53.094;8.778;2023-07-22T06:40:15;16.90;78.40
24678;DHT22;12800;53.094;8.778;2023-07-22T06:42:40;16.90;78.50
24678;DHT22;12800;53.094;8.778;2023-07-22T06:45:06;16.90;78.30
24678;DHT22;12800;53.094;8.778;2023-07-22T06:47:32;16.90;78.10
24678;DHT22;12800;53.094;8.778;2023-07-22T06:49:58;16.90;78.10
24678;DHT22;12800;53.094;8.778;2023-07-22T06:52:24;17.00;78.30
24678;DHT22;12800;53.094;8.778;2023-07-22T06:54:49;17.00;78.30
24678;DHT22;12800;53.094;8.778;2023-07-22T06:57:15;17.00;78.20
24678;DHT22;12800;53.094;8.778;2023-07-22T06:59:41;17.10;78.20
24678;DHT22;12800;53.094;8.778;2023-07-22T07:02:06;17.10;78.20
24678;DHT22;12800;53.094;8.778;2023-07-22T07:04:32;17.20;78.20
24678;DHT22;12800;53.094;8.778;2023-07-22T07:06:58;17.20;78.00
24678;DHT22;12800;53.094;8.778;2023-07-22T07:09:24;17.30;78.00
24678;DHT22;12800;53.094;8.778;2023-07-22T07:11:50;17.40;77.60
24678;DHT22;12800;53.094;8.778;2023-07-22T07:14:17;17.40;77.40
24678;DHT22;12800;53.094;8.778;2023-07-22T07:16:43;17.40;76.90
24678;DHT22;12800;53.094;8.778;2023-07-22T07:19:09;17.50;76.80
24678;DHT22;12800;53.094;8.778;2023-07-22T07:21:35;17.50;76.50
24678;DHT22;12800;53.094;8.778;2023-07-22T07:24:01;17.60;76.50
24678;DHT22;12800;53.094;8.778;2023-07-22T07:26:27;17.60;76.40
24678;DHT22;12800;53.094;8.778;2023-07-22T07:28:53;17.70;76.10
24678;DHT22;12800;53.094;8.778;2023-07-22T07:31:19;17.80;76.00
24678;DHT22;12800;53.094;8.778;2023-07-22T07:33:45;17.80;75.70
24678;DHT22;12800;53.094;8.778;2023-07-22T07:36:11;17.90;75.50
24678;DHT22;12800;53.094;8.778;2023-07-22T07:38:36;17.90;76.10
24678;DHT22;12800;53.094;8.778;2023-07-22T07:41:03;17.90;75.10
24678;DHT22;12800;53.094;8.778;2023-07-22T07:43:29;17.90;75.10
24678;DHT22;12800;53.094;8.778;2023-07-22T07:46:21;17.90;75.00
24678;DHT22;12800;53.094;8.778;2023-07-22T07:48:53;18.00;75.00
24678;DHT22;12800;53.094;8.778;2023-07-22T07:51:20;18.00;74.70
24678;DHT22;12800;53.094;8.778;2023-07-22T07:53:47;18.10;74.50
24678;DHT22;12800;53.094;8.778;2023-07-22T07:56:14;18.20;74.10
24678;DHT22;12800;53.094;8.778;2023-07-22T07:58:40;18.20;74.00
24678;DHT22;12800;53.094;8.778;2023-07-22T08:01:06;18.10;73.90
24678;DHT22;12800;53.094;8.778;2023-07-22T08:03:33;18.30;74.10
24678;DHT22;12800;53.094;8.778;2023-07-22T08:05:58;18.40;73.90
24678;DHT22;12800;53.094;8.778;2023-07-22T08:08:24;18.40;73.70
24678;DHT22;12800;53.094;8.778;2023-07-22T08:13:33;18.70;73.30
24678;DHT22;12800;53.094;8.778;2023-07-22T08:16:03;18.70;72.60
24678;DHT22;12800;53.094;8.778;2023-07-22T08:18:29;18.80;72.50
24678;DHT22;12800;53.094;8.778;2023-07-22T08:20:56;18.80;72.50
24678;DHT22;12800;53.094;8.778;2023-07-22T08:23:22;18.80;72.70
24678;DHT22;12800;53.094;8.778;2023-07-22T08:25:48;19.00;72.50
24678;DHT22;12800;53.094;8.778;2023-07-22T08:28:14;19.00;72.30
24678;DHT22;12800;53.094;8.778;2023-07-22T08:30:39;19.00;71.90
24678;DHT22;12800;53.094;8.778;2023-07-22T08:33:06;19.00;71.40
24678;DHT22;12800;53.094;8.778;2023-07-22T08:35:34;19.10;71.10
24678;DHT22;12800;53.094;8.778;2023-07-22T08:38:00;19.10;70.90
24678;DHT22;12800;53.094;8.778;2023-07-22T08:40:27;19.10;71.10
24678;DHT22;12800;53.094;8.778;2023-07-22T08:42:57;19.20;70.80
24678;DHT22;12800;53.094;8.778;2023-07-22T08:45:25;19.20;70.60
24678;DHT22;12800;53.094;8.778;2023-07-22T08:47:57;19.30;70.70
24678;DHT22;12800;53.094;8.778;2023-07-22T08:50:29;19.40;71.30
24678;DHT22;12800;53.094;8.778;2023-07-22T08:52:55;19.50;70.80
24678;DHT22;12800;53.094;8.778;2023-07-22T08:55:22;19.60;70.40
24678;DHT22;12800;53.094;8.778;2023-07-22T08:57:48;19.60;70.30
24678;DHT22;12800;53.094;8.778;2023-07-22T09:00:16;19.70;70.10
24678;DHT22;12800;53.094;8.778;2023-07-22T09:02:42;19.80;70.00
24678;DHT22;12800;53.094;8.778;2023-07-22T09:05:09;19.90;68.90
24678;DHT22;12800;53.094;8.778;2023-07-22T09:07:36;20.00;68.60
24678;DHT22;12800;53.094;8.778;2023-07-22T09:10:04;20.00;68.30
24678;DHT22;12800;53.094;8.778;2023-07-22T09:12:30;20.10;68.70
24678;DHT22;12800;53.094;8.778;2023-07-22T09:14:57;20.20;69.30
24678;DHT22;12800;53.094;8.778;2023-07-22T09:17:23;20.20;68.20
24678;DHT22;12800;53.094;8.778;2023-07-22T09:19:52;20.30;67.60
24678;DHT22;12800;53.094;8.778;2023-07-22T09:22:24;20.40;67.40
24678;DHT22;12800;53.094;8.778;2023-07-22T09:24:50;20.40;67.50
24678;DHT22;12800;53.094;8.778;2023-07-22T09:27:33;20.50;67.50
24678;DHT22;12800;53.094;8.778;2023-07-22T09:29:59;20.60;67.20
24678;DHT22;12800;53.094;8.778;2023-07-22T09:32:35;20.60;66.80
24678;DHT22;12800;53.094;8.778;2023-07-22T09:35:01;20.80;66.40
24678;DHT22;12800;53.094;8.778;2023-07-22T09:37:37;20.80;66.10
24678;DHT22;12800;53.094;8.778;2023-07-22T09:42:39;20.80;65.70
24678;DHT22;12800;53.094;8.778;2023-07-22T09:45:05;20.80;65.40
24678;DHT22;12800;53.094;8.778;2023-07-22T09:47:43;20.90;65.30
24678;DHT22;12800;53.094;8.778;2023-07-22T09:50:18;20.90;65.20
24678;DHT22;12800;53.094;8.778;2023-07-22T09:52:47;21.00;65.00
24678;DHT22;12800;53.094;8.778;2023-07-22T09:55:21;21.10;64.60
24678;DHT22;12800;53.094;8.778;2023-07-22T09:57:50;21.10;65.20
24678;DHT22;12800;53.094;8.778;2023-07-22T10:00:17;21.10;64.30
24678;DHT22;12800;53.094;8.778;2023-07-22T10:02:48;21.20;64.30
24678;DHT22;12800;53.094;8.778;2023-07-22T10:05:16;21.30;64.50
24678;DHT22;12800;53.094;8.778;2023-07-22T10:07:50;21.30;64.60
24678;DHT22;12800;53.094;8.778;2023-07-22T10:10:18;21.40;64.20
24678;DHT22;12800;53.094;8.778;2023-07-22T10:12:45;21.40;64.20
24678;DHT22;12800;53.094;8.778;2023-07-22T10:15:13;21.50;63.40
24678;DHT22;12800;53.094;8.778;2023-07-22T10:17:40;21.50;63.00
24678;DHT22;12800;53.094;8.778;2023-07-22T10:20:07;21.50;63.40
24678;DHT22;12800;53.094;8.778;2023-07-22T10:22:37;21.60;63.40
24678;DHT22;12800;53.094;8.778;2023-07-22T10:25:04;21.80;62.90
24678;DHT22;12800;53.094;8.778;2023-07-22T10:27:31;21.90;62.60
24678;DHT22;12800;53.094;8.778;2023-07-22T10:29:58;22.00;62.60
24678;DHT22;12800;53.094;8.778;2023-07-22T10:32:24;22.10;61.90
24678;DHT22;12800;53.094;8.778;2023-07-22T10:34:50;22.20;61.70
24678;DHT22;12800;53.094;8.778;2023-07-22T10:37:18;22.20;61.70
24678;DHT22;12800;53.094;8.778;2023-07-22T10:39:44;22.20;61.80
24678;DHT22;12800;53.094;8.778;2023-07-22T10:42:24;22.20;61.40
24678;DHT22;12800;53.094;8.778;2023-07-22T10:44:50;22.10;61.10
24678;DHT22;12800;53.094;8.778;2023-07-22T10:47:31;22.10;61.60
24678;DHT22;12800;53.094;8.778;2023-07-22T10:50:05;22.00;61.10
24678;DHT22;12800;53.094;8.778;2023-07-22T10:52:41;21.90;62.30
24678;DHT22;12800;53.094;8.778;2023-07-22T10:55:15;21.90;61.50
24678;DHT22;12800;53.094;8.778;2023-07-22T10:57:54;21.90;61.60
24678;DHT22;12800;53.094;8.778;2023-07-22T11:00:21;21.90;61.10
24678;DHT22;12800;53.094;8.778;2023-07-22T11:03:10;21.90;61.10
24678;DHT22;12800;53.094;8.778;2023-07-22T11:05:53;21.90;61.10
24678;DHT22;12800;53.094;8.778;2023-07-22T11:08:37;22.00;61.20
24678;DHT22;12800;53.094;8.778;2023-07-22T11:11:04;22.20;61.10
24678;DHT22;12800;53.094;8.778;2023-07-22T11:13:36;22.30;60.90
24678;DHT22;12800;53.094;8.778;2023-07-22T11:16:02;22.40;60.40
24678;DHT22;12800;53.094;8.778;2023-07-22T11:18:39;22.40;60.00
24678;DHT22;12800;53.094;8.778;2023-07-22T11:21:12;22.40;59.90
24678;DHT22;12800;53.094;8.778;2023-07-22T11:23:37;22.40;59.50
24678;DHT22;12800;53.094;8.778;2023-07-22T11:26:03;22.40;59.00
24678;DHT22;12800;53.094;8.778;2023-07-22T11:28:30;22.30;59.00
24678;DHT22;12800;53.094;8.778;2023-07-22T11:30:56;22.30;58.90
24678;DHT22;12800;53.094;8.778;2023-07-22T11:33:24;22.20;58.90
24678;DHT22;12800;53.094;8.778;2023-07-22T11:35:49;22.30;59.40
24678;DHT22;12800;53.094;8.778;2023-07-22T11:38:15;22.30;59.40
24678;DHT22;12800;53.094;8.778;2023-07-22T11:40:41;22.30;59.50
24678;DHT22;12800;53.094;8.778;2023-07-22T11:43:07;22.30;59.30
24678;DHT22;12800;53.094;8.778;2023-07-22T11:45:33;22.40;59.40
24678;DHT22;12800;53.094;8.778;2023-07-22T11:47:59;22.40;59.20
24678;DHT22;12800;53.094;8.778;2023-07-22T11:50:34;22.40;59.00
24678;DHT22;12800;53.094;8.778;2023-07-22T11:53:00;22.40;59.40
24678;DHT22;12800;53.094;8.778;2023-07-22T11:55:25;22.40;59.20
24678;DHT22;12800;53.094;8.778;2023-07-22T11:57:55;22.40;59.10
24678;DHT22;12800;53.094;8.778;2023-07-22T12:00:21;22.30;59.00
24678;DHT22;12800;53.094;8.778;2023-07-22T12:02:47;22.30;59.10
24678;DHT22;12800;53.094;8.778;2023-07-22T12:05:20;22.20;59.20
24678;DHT22;12800;53.094;8.778;2023-07-22T12:07:46;22.20;59.30
24678;DHT22;12800;53.094;8.778;2023-07-22T12:10:12;22.10;59.40
24678;DHT22;12800;53.094;8.778;2023-07-22T12:12:42;21.90;59.10
24678;DHT22;12800;53.094;8.778;2023-07-22T12:15:19;21.80;59.30
24678;DHT22;12800;53.094;8.778;2023-07-22T12:17:48;21.60;59.50
24678;DHT22;12800;53.094;8.778;2023-07-22T12:20:16;21.50;60.20
24678;DHT22;12800;53.094;8.778;2023-07-22T12:22:42;21.30;60.90
24678;DHT22;12800;53.094;8.778;2023-07-22T12:25:08;21.20;61.80
24678;DHT22;12800;53.094;8.778;2023-07-22T12:27:34;21.10;61.90
24678;DHT22;12800;53.094;8.778;2023-07-22T12:30:00;21.00;61.80
24678;DHT22;12800;53.094;8.778;2023-07-22T12:32:25;21.00;62.30
24678;DHT22;12800;53.094;8.778;2023-07-22T12:34:51;20.90;62.90
24678;DHT22;12800;53.094;8.778;2023-07-22T12:37:16;20.90;63.30
24678;DHT22;12800;53.094;8.778;2023-07-22T12:39:42;20.80;63.70
24678;DHT22;12800;53.094;8.778;2023-07-22T12:42:08;20.80;64.10
24678;DHT22;12800;53.094;8.778;2023-07-22T12:44:33;20.80;64.50
24678;DHT22;12800;53.094;8.778;2023-07-22T12:46:59;20.80;64.30
24678;DHT22;12800;53.094;8.778;2023-07-22T12:49:25;20.70;64.30
24678;DHT22;12800;53.094;8.778;2023-07-22T12:51:51;20.50;64.80
24678;DHT22;12800;53.094;8.778;2023-07-22T12:54:17;20.30;65.90
24678;DHT22;12800;53.094;8.778;2023-07-22T12:56:42;20.10;67.50
24678;DHT22;12800;53.094;8.778;2023-07-22T12:59:09;19.90;68.80
24678;DHT22;12800;53.094;8.778;2023-07-22T13:01:35;19.70;69.80
24678;DHT22;12800;53.094;8.778;2023-07-22T13:04:04;19.40;70.50
24678;DHT22;12800;53.094;8.778;2023-07-22T13:06:30;19.30;71.90
24678;DHT22;12800;53.094;8.778;2023-07-22T13:08:56;19.10;72.90
24678;DHT22;12800;53.094;8.778;2023-07-22T13:11:21;19.10;73.50
24678;DHT22;12800;53.094;8.778;2023-07-22T13:13:47;19.00;74.00
24678;DHT22;12800;53.094;8.778;2023-07-22T13:16:13;19.00;74.90
24678;DHT22;12800;53.094;8.778;2023-07-22T13:18:38;18.90;74.90
24678;DHT22;12800;53.094;8.778;2023-07-22T13:21:04;18.90;75.00
24678;DHT22;12800;53.094;8.778;2023-07-22T13:23:29;19.00;76.00
24678;DHT22;12800;53.094;8.778;2023-07-22T13:25:55;19.00;76.50
24678;DHT22;12800;53.094;8.778;2023-07-22T13:28:21;19.20;76.30
24678;DHT22;12800;53.094;8.778;2023-07-22T13:30:46;19.20;75.60
24678;DHT22;12800;53.094;8.778;2023-07-22T13:33:12;19.30;75.60
24678;DHT22;12800;53.094;8.778;2023-07-22T13:35:37;19.30;75.60
24678;DHT22;12800;53.094;8.778;2023-07-22T13:38:03;19.40;75.80
24678;DHT22;12800;53.094;8.778;2023-07-22T13:40:29;19.40;76.50
24678;DHT22;12800;53.094;8.778;2023-07-22T13:42:54;19.40;74.60
24678;DHT22;12800;53.094;8.778;2023-07-22T13:45:20;19.40;75.00
24678;DHT22;12800;53.094;8.778;2023-07-22T13:47:46;19.40;75.30
24678;DHT22;12800;53.094;8.778;2023-07-22T13:50:11;19.40;75.60
24678;DHT22;12800;53.094;8.778;2023-07-22T13:52:37;19.40;75.80
24678;DHT22;12800;53.094;8.778;2023-07-22T13:55:04;19.20;75.20
24678;DHT22;12800;53.094;8.778;2023-07-22T13:57:29;19.10;75.30
24678;DHT22;12800;53.094;8.778;2023-07-22T13:59:55;19.10;75.70
24678;DHT22;12800;53.094;8.778;2023-07-22T14:02:21;19.00;76.10
24678;DHT22;12800;53.094;8.778;2023-07-22T14:04:46;19.00;76.50
24678;DHT22;12800;53.094;8.778;2023-07-22T14:07:12;18.90;76.60
24678;DHT22;12800;53.094;8.778;2023-07-22T14:09:38;18.90;76.70
24678;DHT22;12800;53.094;8.778;2023-07-22T14:12:04;18.80;76.80
24678;DHT22;12800;53.094;8.778;2023-07-22T14:14:30;18.80;76.80
24678;DHT22;12800;53.094;8.778;2023-07-22T14:16:58;18.80;77.10
24678;DHT22;12800;53.094;8.778;2023-07-22T14:19:24;18.80;77.10
24678;DHT22;12800;53.094;8.778;2023-07-22T14:21:50;18.80;77.50
24678;DHT22;12800;53.094;8.778;2023-07-22T14:24:15;18.80;77.90
24678;DHT22;12800;53.094;8.778;2023-07-22T14:26:41;18.80;77.90
24678;DHT22;12800;53.094;8.778;2023-07-22T14:29:06;18.80;78.20
24678;DHT22;12800;53.094;8.778;2023-07-22T14:31:32;18.80;78.30
24678;DHT22;12800;53.094;8.778;2023-07-22T14:33:58;18.80;78.20
24678;DHT22;12800;53.094;8.778;2023-07-22T14:36:23;18.80;78.20
24678;DHT22;12800;53.094;8.778;2023-07-22T14:38:49;18.90;78.40
24678;DHT22;12800;53.094;8.778;2023-07-22T14:41:15;18.80;78.50
24678;DHT22;12800;53.094;8.778;2023-07-22T14:43:41;18.90;78.80
24678;DHT22;12800;53.094;8.778;2023-07-22T14:46:06;18.80;78.60
24678;DHT22;12800;53.094;8.778;2023-07-22T14:48:32;18.70;78.90
24678;DHT22;12800;53.094;8.778;2023-07-22T14:50:58;18.60;79.30
24678;DHT22;12800;53.094;8.778;2023-07-22T14:53:23;18.50;79.40
24678;DHT22;12800;53.094;8.778;2023-07-22T14:55:49;18.40;79.50
24678;DHT22;12800;53.094;8.778;2023-07-22T14:58:15;18.30;79.90
24678;DHT22;12800;53.094;8.778;2023-07-22T15:00:40;18.30;80.20
24678;DHT22;12800;53.094;8.778;2023-07-22T15:03:06;18.20;80.60
24678;DHT22;12800;53.094;8.778;2023-07-22T15:05:31;18.20;81.00
24678;DHT22;12800;53.094;8.778;2023-07-22T15:07:57;18.30;81.60
24678;DHT22;12800;53.094;8.778;2023-07-22T15:10:24;18.40;81.80
24678;DHT22;12800;53.094;8.778;2023-07-22T15:12:49;18.40;81.70
24678;DHT22;12800;53.094;8.778;2023-07-22T15:15:15;18.40;82.20
24678;DHT22;12800;53.094;8.778;2023-07-22T15:17:41;18.40;81.60
24678;DHT22;12800;53.094;8.778;2023-07-22T15:20:07;18.40;81.70
24678;DHT22;12800;53.094;8.778;2023-07-22T15:22:33;18.40;81.90
24678;DHT22;12800;53.094;8.778;2023-07-22T15:24:58;18.40;81.70
24678;DHT22;12800;53.094;8.778;2023-07-22T15:27:24;18.40;81.70
24678;DHT22;12800;53.094;8.778;2023-07-22T15:29:50;18.40;81.80
24678;DHT22;12800;53.094;8.778;2023-07-22T15:32:16;18.40;81.50
24678;DHT22;12800;53.094;8.778;2023-07-22T15:34:41;18.40;81.30
24678;DHT22;12800;53.094;8.778;2023-07-22T15:37:07;18.40;81.20
24678;DHT22;12800;53.094;8.778;2023-07-22T15:39:32;18.30;81.30
24678;DHT22;12800;53.094;8.778;2023-07-22T15:42:00;18.30;81.50
24678;DHT22;12800;53.094;8.778;2023-07-22T15:44:25;18.30;81.70
24678;DHT22;12800;53.094;8.778;2023-07-22T15:46:54;18.20;81.80
24678;DHT22;12800;53.094;8.778;2023-07-22T15:49:19;18.20;81.50
24678;DHT22;12800;53.094;8.778;2023-07-22T15:51:45;18.20;81.40
24678;DHT22;12800;53.094;8.778;2023-07-22T15:54:11;18.20;81.70
24678;DHT22;12800;53.094;8.778;2023-07-22T15:56:39;18.10;81.40
24678;DHT22;12800;53.094;8.778;2023-07-22T15:59:05;18.10;81.40
24678;DHT22;12800;53.094;8.778;2023-07-22T16:01:30;18.00;81.60
24678;DHT22;12800;53.094;8.778;2023-07-22T16:03:56;18.00;81.70
24678;DHT22;12800;53.094;8.778;2023-07-22T16:06:22;18.00;81.80
24678;DHT22;12800;53.094;8.778;2023-07-22T16:08:47;17.90;81.90
24678;DHT22;12800;53.094;8.778;2023-07-22T16:11:13;17.90;81.90
24678;DHT22;12800;53.094;8.778;2023-07-22T16:13:38;17.80;82.10
24678;DHT22;12800;53.094;8.778;2023-07-22T16:16:04;17.90;82.40
24678;DHT22;12800;53.094;8.778;2023-07-22T16:18:30;17.90;82.60
24678;DHT22;12800;53.094;8.778;2023-07-22T16:20:56;17.90;82.90
24678;DHT22;12800;53.094;8.778;2023-07-22T16:23:23;18.00;83.10
24678;DHT22;12800;53.094;8.778;2023-07-22T16:25:48;18.00;83.10
24678;DHT22;12800;53.094;8.778;2023-07-22T16:28:14;18.00;83.10
24678;DHT22;12800;53.094;8.778;2023-07-22T16:30:40;18.00;83.20
24678;DHT22;12800;53.094;8.778;2023-07-22T16:33:06;18.00;83.20
24678;DHT22;12800;53.094;8.778;2023-07-22T16:35:31;18.10;83.30
24678;DHT22;12800;53.094;8.778;2023-07-22T16:37:57;18.10;83.40
24678;DHT22;12800;53.094;8.778;2023-07-22T16:40:24;18.20;83.40
24678;DHT22;12800;53.094;8.778;2023-07-22T16:42:50;18.20;83.30
24678;DHT22;12800;53.094;8.778;2023-07-22T16:45:16;18.20;83.20
24678;DHT22;12800;53.094;8.778;2023-07-22T16:47:41;18.20;83.40
24678;DHT22;12800;53.094;8.778;2023-07-22T16:50:07;18.10;83.30
24678;DHT22;12800;53.094;8.778;2023-07-22T16:52:34;18.10;83.40
24678;DHT22;12800;53.094;8.778;2023-07-22T16:54:59;18.10;83.70
24678;DHT22;12800;53.094;8.778;2023-07-22T16:57:26;18.10;83.90
24678;DHT22;12800;53.094;8.778;2023-07-22T16:59:51;18.10;83.80
24678;DHT22;12800;53.094;8.778;2023-07-22T17:02:17;18.10;83.90
24678;DHT22;12800;53.094;8.778;2023-07-22T17:04:42;18.10;84.10
24678;DHT22;12800;53.094;8.778;2023-07-22T17:07:09;18.10;84.20
24678;DHT22;12800;53.094;8.778;2023-07-22T17:09:35;18.10;84.20
24678;DHT22;12800;53.094;8.778;2023-07-22T17:12:00;18.10;83.90
24678;DHT22;12800;53.094;8.778;2023-07-22T17:14:26;18.00;84.00
24678;DHT22;12800;53.094;8.778;2023-07-22T17:16:51;17.90;84.10
24678;DHT22;12800;53.094;8.778;2023-07-22T17:19:17;17.90;84.20
24678;DHT22;12800;53.094;8.778;2023-07-22T17:21:43;17.90;84.10
24678;DHT22;12800;53.094;8.778;2023-07-22T17:24:08;17.80;84.10
24678;DHT22;12800;53.094;8.778;2023-07-22T17:26:34;17.80;84.50
24678;DHT22;12800;53.094;8.778;2023-07-22T17:28:59;17.80;84.70
24678;DHT22;12800;53.094;8.778;2023-07-22T17:31:25;17.80;84.80
24678;DHT22;12800;53.094;8.778;2023-07-22T17:33:50;17.70;84.90
24678;DHT22;12800;53.094;8.778;2023-07-22T17:36:16;17.70;85.00
24678;DHT22;12800;53.094;8.778;2023-07-22T17:38:42;17.70;85.20
24678;DHT22;12800;53.094;8.778;2023-07-22T17:41:07;17.70;85.40
24678;DHT22;12800;53.094;8.778;2023-07-22T17:43:33;17.70;85.50